sensor_id;sensor_type;location;lat;lon;timestamp;temperature;humidity
5731;DHT22;2890;51.950;7.668;2022-09-03T00:01:31;17.20;19.80
5731;DHT22;2890;51.950;7.668;2022-09-03T00:04:04;17.20;20.30
5731;DHT22;2890;51.950;7.668;2022-09-03T00:06:38;17.20;20.50
5731;DHT22;2890;51.950;7.668;2022-09-03T00:09:10;17.20;20.60
5731;DHT22;2890;51.950;7.668;2022-09-03T00:11:47;17.10;20.80
5731;DHT22;2890;51.950;7.668;2022-09-03T00:14:19;17.10;21.20
5731;DHT22;2890;51.950;7.668;2022-09-03T00:16:52;17.00;21.20
5731;DHT22;2890;51.950;7.668;2022-09-03T00:19:23;17.00;21.30
5731;DHT22;2890;51.950;7.668;2022-09-03T00:21:54;17.00;21.70
5731;DHT22;2890;51.950;7.668;2022-09-03T00:24:27;16.90;22.20
5731;DHT22;2890;51.950;7.668;2022-09-03T00:26:59;16.90;22.40
5731;DHT22;2890;51.950;7.668;2022-09-03T00:29:32;16.90;22.60
5731;DHT22;2890;51.950;7.668;2022-09-03T00:32:06;16.80;22.90
5731;DHT22;2890;51.950;7.668;2022-09-03T00:34:37;16.80;23.10
5731;DHT22;2890;51.950;7.668;2022-09-03T00:37:06;16.70;23.60
5731;DHT22;2890;51.950;7.668;2022-09-03T00:39:35;16.70;23.90
5731;DHT22;2890;51.950;7.668;2022-09-03T00:42:26;16.70;24.10
5731;DHT22;2890;51.950;7.668;2022-09-03T00:45:06;16.70;24.20
5731;DHT22;2890;51.950;7.668;2022-09-03T00:47:46;16.60;24.60
5731;DHT22;2890;51.950;7.668;2022-09-03T00:50:18;16.60;25.00
5731;DHT22;2890;51.950;7.668;2022-09-03T00:52:53;16.60;25.10
5731;DHT22;2890;51.950;7.668;2022-09-03T00:55:31;16.50;25.20
5731;DHT22;2890;51.950;7.668;2022-09-03T00:58:19;16.50;25.60
5731;DHT22;2890;51.950;7.668;2022-09-03T01:00:50;16.40;26.00
5731;DHT22;2890;51.950;7.668;2022-09-03T01:03:24;16.40;26.30
5731;DHT22;2890;51.950;7.668;2022-09-03T01:06:05;16.40;26.30
5731;DHT22;2890;51.950;7.668;2022-09-03T01:08:50;16.30;26.70
5731;DHT22;2890;51.950;7.668;2022-09-03T01:11:29;16.30;27.00
5731;DHT22;2890;51.950;7.668;2022-09-03T01:14:04;16.30;27.20
5731;DHT22;2890;51.950;7.668;2022-09-03T01:16:39;16.30;27.60
5731;DHT22;2890;51.950;7.668;2022-09-03T01:19:26;16.30;27.80
5731;DHT22;2890;51.950;7.668;2022-09-03T01:22:10;16.20;27.80
5731;DHT22;2890;51.950;7.668;2022-09-03T01:25:03;16.20;28.40
5731;DHT22;2890;51.950;7.668;2022-09-03T01:27:43;16.10;28.80
5731;DHT22;2890;51.950;7.668;2022-09-03T01:30:14;16.10;29.00
5731;DHT22;2890;51.950;7.668;2022-09-03T01:32:48;16.10;29.00
5731;DHT22;2890;51.950;7.668;2022-09-03T01:35:24;16.10;29.50
5731;DHT22;2890;51.950;7.668;2022-09-03T01:38:03;16.00;29.50
5731;DHT22;2890;51.950;7.668;2022-09-03T01:40:38;16.10;29.90
5731;DHT22;2890;51.950;7.668;2022-09-03T01:43:31;16.00;30.00
5731;DHT22;2890;51.950;7.668;2022-09-03T01:46:08;15.90;30.10
5731;DHT22;2890;51.950;7.668;2022-09-03T01:48:43;15.90;30.60
5731;DHT22;2890;51.950;7.668;2022-09-03T01:51:22;15.90;30.80
5731;DHT22;2890;51.950;7.668;2022-09-03T01:57:26;15.80;31.70
5731;DHT22;2890;51.950;7.668;2022-09-03T01:59:59;15.80;31.90
5731;DHT22;2890;51.950;7.668;2022-09-03T02:02:28;15.80;32.50
5731;DHT22;2890;51.950;7.668;2022-09-03T02:04:59;15.70;32.40
5731;DHT22;2890;51.950;7.668;2022-09-03T02:07:30;15.70;32.80
5731;DHT22;2890;51.950;7.668;2022-09-03T02:09:59;15.70;32.70
5731;DHT22;2890;51.950;7.668;2022-09-03T02:12:28;15.70;33.20
5731;DHT22;2890;51.950;7.668;2022-09-03T02:14:58;15.70;33.50
5731;DHT22;2890;51.950;7.668;2022-09-03T02:17:25;15.70;33.80
5731;DHT22;2890;51.950;7.668;2022-09-03T02:19:54;15.60;33.80
5731;DHT22;2890;51.950;7.668;2022-09-03T02:22:21;15.60;34.40
5731;DHT22;2890;51.950;7.668;2022-09-03T02:24:48;15.60;34.10
5731;DHT22;2890;51.950;7.668;2022-09-03T02:27:15;15.60;34.40
5731;DHT22;2890;51.950;7.668;2022-09-03T02:29:42;15.60;34.40
5731;DHT22;2890;51.950;7.668;2022-09-03T02:32:11;15.60;34.50
5731;DHT22;2890;51.950;7.668;2022-09-03T02:34:39;15.50;35.10
5731;DHT22;2890;51.950;7.668;2022-09-03T02:37:13;15.50;35.70
5731;DHT22;2890;51.950;7.668;2022-09-03T02:39:40;15.50;35.60
5731;DHT22;2890;51.950;7.668;2022-09-03T02:42:09;15.40;36.20
5731;DHT22;2890;51.950;7.668;2022-09-03T02:44:41;15.40;36.70
5731;DHT22;2890;51.950;7.668;2022-09-03T02:47:10;15.40;36.80
5731;DHT22;2890;51.950;7.668;2022-09-03T02:49:37;15.30;37.00
5731;DHT22;2890;51.950;7.668;2022-09-03T02:52:06;15.30;37.90
5731;DHT22;2890;51.950;7.668;2022-09-03T02:54:35;15.30;37.90
5731;DHT22;2890;51.950;7.668;2022-09-03T02:57:04;15.20;38.10
5731;DHT22;2890;51.950;7.668;2022-09-03T02:59:31;15.20;38.40
5731;DHT22;2890;51.950;7.668;2022-09-03T03:01:58;15.20;38.60
5731;DHT22;2890;51.950;7.668;2022-09-03T03:04:25;15.20;38.80
5731;DHT22;2890;51.950;7.668;2022-09-03T03:06:52;15.20;39.10
5731;DHT22;2890;51.950;7.668;2022-09-03T03:09:19;15.20;38.80
5731;DHT22;2890;51.950;7.668;2022-09-03T03:11:47;15.20;39.40
5731;DHT22;2890;51.950;7.668;2022-09-03T03:14:15;15.20;39.10
5731;DHT22;2890;51.950;7.668;2022-09-03T03:16:42;15.20;39.10
5731;DHT22;2890;51.950;7.668;2022-09-03T03:19:08;15.20;39.70
5731;DHT22;2890;51.950;7.668;2022-09-03T03:21:35;15.10;39.70
5731;DHT22;2890;51.950;7.668;2022-09-03T03:24:02;15.10;39.80
5731;DHT22;2890;51.950;7.668;2022-09-03T03:26:29;15.10;40.20
5731;DHT22;2890;51.950;7.668;2022-09-03T03:28:59;15.10;40.60
5731;DHT22;2890;51.950;7.668;2022-09-03T03:31:30;15.10;40.50
5731;DHT22;2890;51.950;7.668;2022-09-03T03:33:58;15.00;40.60
5731;DHT22;2890;51.950;7.668;2022-09-03T03:36:27;15.00;41.00
5731;DHT22;2890;51.950;7.668;2022-09-03T03:38:55;15.00;41.50
5731;DHT22;2890;51.950;7.668;2022-09-03T03:41:23;14.90;41.70
5731;DHT22;2890;51.950;7.668;2022-09-03T03:43:52;15.00;41.60
5731;DHT22;2890;51.950;7.668;2022-09-03T03:46:21;14.90;42.00
5731;DHT22;2890;51.950;7.668;2022-09-03T03:48:48;14.90;42.60
5731;DHT22;2890;51.950;7.668;2022-09-03T03:51:16;14.90;42.80
5731;DHT22;2890;51.950;7.668;2022-09-03T03:53:43;14.90;43.20
5731;DHT22;2890;51.950;7.668;2022-09-03T03:56:12;14.80;43.20
5731;DHT22;2890;51.950;7.668;2022-09-03T03:58:40;14.80;43.90
5731;DHT22;2890;51.950;7.668;2022-09-03T04:01:09;14.80;44.10
5731;DHT22;2890;51.950;7.668;2022-09-03T04:03:37;14.80;44.60
5731;DHT22;2890;51.950;7.668;2022-09-03T04:06:05;14.80;44.80
5731;DHT22;2890;51.950;7.668;2022-09-03T04:08:33;14.80;45.00
5731;DHT22;2890;51.950;7.668;2022-09-03T04:11:01;14.70;45.20
5731;DHT22;2890;51.950;7.668;2022-09-03T04:13:28;14.60;45.70
5731;DHT22;2890;51.950;7.668;2022-09-03T04:16:00;14.70;46.00
5731;DHT22;2890;51.950;7.668;2022-09-03T04:18:27;14.60;46.60
5731;DHT22;2890;51.950;7.668;2022-09-03T04:20:59;14.60;47.40
5731;DHT22;2890;51.950;7.668;2022-09-03T04:25:55;14.60;47.90
5731;DHT22;2890;51.950;7.668;2022-09-03T04:30:49;14.70;46.60
5731;DHT22;2890;51.950;7.668;2022-09-03T04:33:16;14.60;48.00
5731;DHT22;2890;51.950;7.668;2022-09-03T04:35:43;14.50;48.50
5731;DHT22;2890;51.950;7.668;2022-09-03T04:38:11;14.40;49.30
5731;DHT22;2890;51.950;7.668;2022-09-03T04:40:38;14.40;49.70
5731;DHT22;2890;51.950;7.668;2022-09-03T04:43:04;14.40;49.50
5731;DHT22;2890;51.950;7.668;2022-09-03T04:45:31;14.40;50.30
5731;DHT22;2890;51.950;7.668;2022-09-03T04:47:58;14.30;50.60
5731;DHT22;2890;51.950;7.668;2022-09-03T04:50:25;14.30;51.30
5731;DHT22;2890;51.950;7.668;2022-09-03T04:52:53;14.40;50.50
5731;DHT22;2890;51.950;7.668;2022-09-03T04:55:21;14.40;51.00
5731;DHT22;2890;51.950;7.668;2022-09-03T04:57:48;14.30;51.10
5731;DHT22;2890;51.950;7.668;2022-09-03T05:00:15;14.30;51.30
5731;DHT22;2890;51.950;7.668;2022-09-03T05:02:43;14.30;51.30
5731;DHT22;2890;51.950;7.668;2022-09-03T05:05:11;14.30;51.60
5731;DHT22;2890;51.950;7.668;2022-09-03T05:07:38;14.30;51.60
5731;DHT22;2890;51.950;7.668;2022-09-03T05:10:07;14.40;51.70
5731;DHT22;2890;51.950;7.668;2022-09-03T05:12:38;14.40;51.30
5731;DHT22;2890;51.950;7.668;2022-09-03T05:15:06;14.50;51.00
5731;DHT22;2890;51.950;7.668;2022-09-03T05:17:33;14.40;51.00
5731;DHT22;2890;51.950;7.668;2022-09-03T05:19:59;14.50;52.90
5731;DHT22;2890;51.950;7.668;2022-09-03T05:22:26;14.50;51.50
5731;DHT22;2890;51.950;7.668;2022-09-03T05:24:53;14.50;51.00
5731;DHT22;2890;51.950;7.668;2022-09-03T05:27:21;14.50;50.90
5731;DHT22;2890;51.950;7.668;2022-09-03T05:29:49;14.60;50.90
5731;DHT22;2890;51.950;7.668;2022-09-03T05:32:16;14.60;51.10
5731;DHT22;2890;51.950;7.668;2022-09-03T05:34:42;14.60;51.10
5731;DHT22;2890;51.950;7.668;2022-09-03T05:37:09;14.60;51.20
5731;DHT22;2890;51.950;7.668;2022-09-03T05:39:37;14.70;51.30
5731;DHT22;2890;51.950;7.668;2022-09-03T05:42:04;14.70;51.20
5731;DHT22;2890;51.950;7.668;2022-09-03T05:44:30;14.70;52.00
5731;DHT22;2890;51.950;7.668;2022-09-03T05:46:58;14.70;50.60
5731;DHT22;2890;51.950;7.668;2022-09-03T05:49:25;14.80;50.80
5731;DHT22;2890;51.950;7.668;2022-09-03T05:51:52;14.80;51.20
5731;DHT22;2890;51.950;7.668;2022-09-03T05:54:18;14.80;50.90
5731;DHT22;2890;51.950;7.668;2022-09-03T05:56:45;14.90;51.20
5731;DHT22;2890;51.950;7.668;2022-09-03T05:59:12;15.00;50.80
5731;DHT22;2890;51.950;7.668;2022-09-03T06:01:40;15.00;49.70
5731;DHT22;2890;51.950;7.668;2022-09-03T06:04:10;15.10;50.50
5731;DHT22;2890;51.950;7.668;2022-09-03T06:06:39;15.20;49.20
5731;DHT22;2890;51.950;7.668;2022-09-03T06:09:07;15.20;49.00
5731;DHT22;2890;51.950;7.668;2022-09-03T06:11:36;15.30;49.10
5731;DHT22;2890;51.950;7.668;2022-09-03T06:14:04;15.40;48.80
5731;DHT22;2890;51.950;7.668;2022-09-03T06:16:33;15.40;48.10
5731;DHT22;2890;51.950;7.668;2022-09-03T06:19:01;15.50;47.60
5731;DHT22;2890;51.950;7.668;2022-09-03T06:21:29;15.60;47.30
5731;DHT22;2890;51.950;7.668;2022-09-03T06:23:57;15.70;46.70
5731;DHT22;2890;51.950;7.668;2022-09-03T06:26:24;15.80;45.80
5731;DHT22;2890;51.950;7.668;2022-09-03T06:28:52;16.00;45.10
5731;DHT22;2890;51.950;7.668;2022-09-03T06:31:21;16.20;43.50
5731;DHT22;2890;51.950;7.668;2022-09-03T06:33:48;16.50;41.70
5731;DHT22;2890;51.950;7.668;2022-09-03T06:36:16;17.50;36.40
5731;DHT22;2890;51.950;7.668;2022-09-03T06:38:45;18.80;27.80
5731;DHT22;2890;51.950;7.668;2022-09-03T06:41:16;20.30;19.60
5731;DHT22;2890;51.950;7.668;2022-09-03T06:43:50;21.60;12.80
5731;DHT22;2890;51.950;7.668;2022-09-03T06:46:19;22.60;6.70
5731;DHT22;2890;51.950;7.668;2022-09-03T06:48:47;23.30;2.40
5731;DHT22;2890;51.950;7.668;2022-09-03T06:51:17;24.00;1.00
5731;DHT22;2890;51.950;7.668;2022-09-03T06:53:47;24.80;1.00
5731;DHT22;2890;51.950;7.668;2022-09-03T06:56:15;25.40;1.00
5731;DHT22;2890;51.950;7.668;2022-09-03T06:58:44;25.50;1.00
5731;DHT22;2890;51.950;7.668;2022-09-03T07:01:13;25.40;1.00
5731;DHT22;2890;51.950;7.668;2022-09-03T07:03:41;25.10;1.00
5731;DHT22;2890;51.950;7.668;2022-09-03T07:06:09;25.00;1.00
5731;DHT22;2890;51.950;7.668;2022-09-03T07:08:36;25.10;1.00
5731;DHT22;2890;51.950;7.668;2022-09-03T07:11:07;24.80;1.00
5731;DHT22;2890;51.950;7.668;2022-09-03T07:13:35;24.30;1.00
5731;DHT22;2890;51.950;7.668;2022-09-03T07:16:04;23.90;1.00
5731;DHT22;2890;51.950;7.668;2022-09-03T07:18:32;23.60;1.00
5731;DHT22;2890;51.950;7.668;2022-09-03T07:20:59;23.50;1.00
5731;DHT22;2890;51.950;7.668;2022-09-03T07:23:27;23.30;1.00
5731;DHT22;2890;51.950;7.668;2022-09-03T07:25:54;23.60;1.00
5731;DHT22;2890;51.950;7.668;2022-09-03T07:28:23;23.40;1.00
5731;DHT22;2890;51.950;7.668;2022-09-03T07:30:50;23.20;1.70
5731;DHT22;2890;51.950;7.668;2022-09-03T07:33:17;23.40;1.40
5731;DHT22;2890;51.950;7.668;2022-09-03T07:35:44;23.80;1.00
5731;DHT22;2890;51.950;7.668;2022-09-03T07:38:15;24.00;1.00
5731;DHT22;2890;51.950;7.668;2022-09-03T07:40:42;24.40;1.00
5731;DHT22;2890;51.950;7.668;2022-09-03T07:43:08;24.60;1.00
5731;DHT22;2890;51.950;7.668;2022-09-03T07:45:36;25.00;1.00
5731;DHT22;2890;51.950;7.668;2022-09-03T07:48:03;25.30;1.00
5731;DHT22;2890;51.950;7.668;2022-09-03T07:50:30;24.90;1.00
5731;DHT22;2890;51.950;7.668;2022-09-03T07:53:03;25.00;1.00
5731;DHT22;2890;51.950;7.668;2022-09-03T14:31:41;27.70;1.00
5731;DHT22;2890;51.950;7.668;2022-09-03T14:34:24;27.50;1.00
5731;DHT22;2890;51.950;7.668;2022-09-03T14:37:03;27.40;1.00
5731;DHT22;2890;51.950;7.668;2022-09-03T14:39:33;27.40;1.00
5731;DHT22;2890;51.950;7.668;2022-09-03T14:42:35;27.50;1.00
5731;DHT22;2890;51.950;7.668;2022-09-03T14:45:20;27.50;1.00
5731;DHT22;2890;51.950;7.668;2022-09-03T14:48:12;27.20;1.00
5731;DHT22;2890;51.950;7.668;2022-09-03T14:50:50;27.30;1.00
5731;DHT22;2890;51.950;7.668;2022-09-03T14:53:37;27.20;1.00
5731;DHT22;2890;51.950;7.668;2022-09-03T14:56:18;27.20;1.00
5731;DHT22;2890;51.950;7.668;2022-09-03T14:59:03;27.20;1.00
5731;DHT22;2890;51.950;7.668;2022-09-03T15:01:34;27.10;1.00
5731;DHT22;2890;51.950;7.668;2022-09-03T15:04:19;26.90;1.00
5731;DHT22;2890;51.950;7.668;2022-09-03T15:07:05;26.70;1.00
5731;DHT22;2890;51.950;7.668;2022-09-03T15:09:39;26.60;1.00
5731;DHT22;2890;51.950;7.668;2022-09-03T15:12:15;26.60;1.00
5731;DHT22;2890;51.950;7.668;2022-09-03T15:14:49;26.60;1.00
5731;DHT22;2890;51.950;7.668;2022-09-03T15:17:39;26.70;1.00
5731;DHT22;2890;51.950;7.668;2022-09-03T15:20:21;26.70;1.00
5731;DHT22;2890;51.950;7.668;2022-09-03T15:23:27;26.50;1.00
5731;DHT22;2890;51.950;7.668;2022-09-03T15:26:17;26.50;1.00
5731;DHT22;2890;51.950;7.668;2022-09-03T15:29:06;26.50;1.00
5731;DHT22;2890;51.950;7.668;2022-09-03T15:31:45;26.50;1.00
5731;DHT22;2890;51.950;7.668;2022-09-03T15:34:29;26.40;1.00
5731;DHT22;2890;51.950;7.668;2022-09-03T15:36:59;26.30;1.00
5731;DHT22;2890;51.950;7.668;2022-09-03T15:39:32;26.20;1.00
5731;DHT22;2890;51.950;7.668;2022-09-03T15:42:06;26.00;1.00
5731;DHT22;2890;51.950;7.668;2022-09-03T15:44:37;26.00;1.00
5731;DHT22;2890;51.950;7.668;2022-09-03T15:47:11;25.90;1.00
5731;DHT22;2890;51.950;7.668;2022-09-03T15:49:47;25.80;1.00
5731;DHT22;2890;51.950;7.668;2022-09-03T15:52:28;25.80;1.00
5731;DHT22;2890;51.950;7.668;2022-09-03T15:55:00;25.70;1.00
5731;DHT22;2890;51.950;7.668;2022-09-03T15:57:36;25.70;1.00
5731;DHT22;2890;51.950;7.668;2022-09-03T16:00:06;25.70;1.00
5731;DHT22;2890;51.950;7.668;2022-09-03T16:02:41;25.60;1.00
5731;DHT22;2890;51.950;7.668;2022-09-03T16:05:16;25.60;1.00
5731;DHT22;2890;51.950;7.668;2022-09-03T16:07:57;25.60;1.00
5731;DHT22;2890;51.950;7.668;2022-09-03T16:10:38;25.50;1.00
5731;DHT22;2890;51.950;7.668;2022-09-03T16:13:24;25.60;1.00
5731;DHT22;2890;51.950;7.668;2022-09-03T16:16:00;25.60;1.00
5731;DHT22;2890;51.950;7.668;2022-09-03T16:18:31;25.60;1.00
5731;DHT22;2890;51.950;7.668;2022-09-03T16:21:02;25.60;1.00
5731;DHT22;2890;51.950;7.668;2022-09-03T16:23:35;25.60;1.00
5731;DHT22;2890;51.950;7.668;2022-09-03T16:26:06;25.50;1.00
5731;DHT22;2890;51.950;7.668;2022-09-03T16:28:42;25.40;1.00
5731;DHT22;2890;51.950;7.668;2022-09-03T16:31:17;25.40;1.00
5731;DHT22;2890;51.950;7.668;2022-09-03T16:33:56;25.40;1.00
5731;DHT22;2890;51.950;7.668;2022-09-03T16:36:37;25.40;1.00
5731;DHT22;2890;51.950;7.668;2022-09-03T16:39:15;25.40;1.00
5731;DHT22;2890;51.950;7.668;2022-09-03T16:41:49;25.30;1.00
5731;DHT22;2890;51.950;7.668;2022-09-03T16:44:26;25.10;1.00
5731;DHT22;2890;51.950;7.668;2022-09-03T16:47:00;25.10;1.00
5731;DHT22;2890;51.950;7.668;2022-09-03T16:49:39;25.00;1.00
5731;DHT22;2890;51.950;7.668;2022-09-03T16:52:15;24.90;1.00
5731;DHT22;2890;51.950;7.668;2022-09-03T16:55:01;24.80;1.00
5731;DHT22;2890;51.950;7.668;2022-09-03T16:57:45;24.70;1.00
5731;DHT22;2890;51.950;7.668;2022-09-03T17:00:15;24.60;1.00
5731;DHT22;2890;51.950;7.668;2022-09-03T17:03:02;24.50;1.00
5731;DHT22;2890;51.950;7.668;2022-09-03T17:05:50;24.40;1.00
5731;DHT22;2890;51.950;7.668;2022-09-03T17:08:27;24.30;1.00
5731;DHT22;2890;51.950;7.668;2022-09-03T17:11:08;24.20;1.00
5731;DHT22;2890;51.950;7.668;2022-09-03T17:13:48;24.10;1.00
5731;DHT22;2890;51.950;7.668;2022-09-03T17:16:27;24.10;1.00
5731;DHT22;2890;51.950;7.668;2022-09-03T17:19:01;24.00;1.00
5731;DHT22;2890;51.950;7.668;2022-09-03T17:21:38;24.00;1.40
5731;DHT22;2890;51.950;7.668;2022-09-03T17:24:31;23.90;2.70
5731;DHT22;2890;51.950;7.668;2022-09-03T17:27:26;23.90;1.80
5731;DHT22;2890;51.950;7.668;2022-09-03T17:30:05;23.90;2.30
5731;DHT22;2890;51.950;7.668;2022-09-03T17:32:57;23.80;2.40
5731;DHT22;2890;51.950;7.668;2022-09-03T17:35:35;23.80;2.10
5731;DHT22;2890;51.950;7.668;2022-09-03T17:38:12;23.70;2.50
5731;DHT22;2890;51.950;7.668;2022-09-03T17:40:52;23.70;2.60
5731;DHT22;2890;51.950;7.668;2022-09-03T17:43:25;23.60;2.80
5731;DHT22;2890;51.950;7.668;2022-09-03T17:46:03;23.60;2.90
5731;DHT22;2890;51.950;7.668;2022-09-03T17:48:46;23.60;2.60
5731;DHT22;2890;51.950;7.668;2022-09-03T17:51:26;23.60;2.90
5731;DHT22;2890;51.950;7.668;2022-09-03T17:54:03;23.50;3.00
5731;DHT22;2890;51.950;7.668;2022-09-03T17:56:39;23.50;3.40
5731;DHT22;2890;51.950;7.668;2022-09-03T17:59:16;23.40;3.70
5731;DHT22;2890;51.950;7.668;2022-09-03T18:01:50;23.30;3.80
5731;DHT22;2890;51.950;7.668;2022-09-03T18:04:30;23.20;4.20
5731;DHT22;2890;51.950;7.668;2022-09-03T18:07:07;23.20;4.50
5731;DHT22;2890;51.950;7.668;2022-09-03T18:09:39;23.10;4.90
5731;DHT22;2890;51.950;7.668;2022-09-03T18:12:10;23.00;5.60
5731;DHT22;2890;51.950;7.668;2022-09-03T18:14:43;22.90;5.80
5731;DHT22;2890;51.950;7.668;2022-09-03T18:17:21;22.80;6.00
5731;DHT22;2890;51.950;7.668;2022-09-03T18:20:02;22.80;6.40
5731;DHT22;2890;51.950;7.668;2022-09-03T18:22:51;22.70;6.40
5731;DHT22;2890;51.950;7.668;2022-09-03T18:25:39;22.70;6.70
5731;DHT22;2890;51.950;7.668;2022-09-03T18:28:31;22.60;7.00
5731;DHT22;2890;51.950;7.668;2022-09-03T18:31:18;22.50;7.80
5731;DHT22;2890;51.950;7.668;2022-09-03T18:34:02;22.40;8.40
5731;DHT22;2890;51.950;7.668;2022-09-03T18:36:49;22.30;8.70
5731;DHT22;2890;51.950;7.668;2022-09-03T18:39:34;22.30;9.20
5731;DHT22;2890;51.950;7.668;2022-09-03T18:42:25;22.20;9.40
5731;DHT22;2890;51.950;7.668;2022-09-03T18:45:21;22.20;9.80
5731;DHT22;2890;51.950;7.668;2022-09-03T18:48:13;22.10;10.10
5731;DHT22;2890;51.950;7.668;2022-09-03T18:51:06;22.10;10.80
5731;DHT22;2890;51.950;7.668;2022-09-03T18:54:07;22.00;11.00
5731;DHT22;2890;51.950;7.668;2022-09-03T18:56:53;22.00;11.20
5731;DHT22;2890;51.950;7.668;2022-09-03T18:59:59;22.00;11.10
5731;DHT22;2890;51.950;7.668;2022-09-03T19:06:01;22.00;11.30
5731;DHT22;2890;51.950;7.668;2022-09-03T19:08:56;22.00;11.50
5731;DHT22;2890;51.950;7.668;2022-09-03T19:11:54;22.00;11.60
5731;DHT22;2890;51.950;7.668;2022-09-03T19:14:48;21.90;12.00
5731;DHT22;2890;51.950;7.668;2022-09-03T19:17:49;21.80;12.40
5731;DHT22;2890;51.950;7.668;2022-09-03T19:20:38;21.70;12.90
5731;DHT22;2890;51.950;7.668;2022-09-03T19:23:23;21.60;13.60
5731;DHT22;2890;51.950;7.668;2022-09-03T19:26:17;21.60;14.10
5731;DHT22;2890;51.950;7.668;2022-09-03T19:29:10;21.60;14.50
5731;DHT22;2890;51.950;7.668;2022-09-03T19:32:01;21.60;14.80
5731;DHT22;2890;51.950;7.668;2022-09-03T19:35:07;21.50;14.80
5731;DHT22;2890;51.950;7.668;2022-09-03T19:38:02;21.50;15.00
5731;DHT22;2890;51.950;7.668;2022-09-03T19:40:58;21.50;15.50
5731;DHT22;2890;51.950;7.668;2022-09-03T19:43:55;21.30;15.90
5731;DHT22;2890;51.950;7.668;2022-09-03T19:46:46;21.30;16.40
5731;DHT22;2890;51.950;7.668;2022-09-03T19:49:41;21.20;16.90
5731;DHT22;2890;51.950;7.668;2022-09-03T19:52:32;21.20;17.40
5731;DHT22;2890;51.950;7.668;2022-09-03T19:55:24;21.10;17.90
5731;DHT22;2890;51.950;7.668;2022-09-03T19:58:09;21.00;18.50
5731;DHT22;2890;51.950;7.668;2022-09-03T20:00:55;20.90;18.80
5731;DHT22;2890;51.950;7.668;2022-09-03T20:03:41;20.90;19.30
5731;DHT22;2890;51.950;7.668;2022-09-03T20:06:26;20.80;20.00
5731;DHT22;2890;51.950;7.668;2022-09-03T20:09:12;20.80;20.70
5731;DHT22;2890;51.950;7.668;2022-09-03T20:12:03;20.70;21.10
5731;DHT22;2890;51.950;7.668;2022-09-03T20:14:32;20.60;21.70
5731;DHT22;2890;51.950;7.668;2022-09-03T20:17:12;20.60;22.40
5731;DHT22;2890;51.950;7.668;2022-09-03T20:19:52;20.60;22.80
5731;DHT22;2890;51.950;7.668;2022-09-03T20:22:30;20.50;23.20
5731;DHT22;2890;51.950;7.668;2022-09-03T20:25:10;20.50;23.80
5731;DHT22;2890;51.950;7.668;2022-09-03T20:27:45;20.40;24.30
5731;DHT22;2890;51.950;7.668;2022-09-03T20:30:14;20.40;24.90
5731;DHT22;2890;51.950;7.668;2022-09-03T20:32:54;20.30;25.30
5731;DHT22;2890;51.950;7.668;2022-09-03T20:35:35;20.30;25.80
5731;DHT22;2890;51.950;7.668;2022-09-03T20:38:10;20.30;26.20
5731;DHT22;2890;51.950;7.668;2022-09-03T20:40:45;20.20;26.60
5731;DHT22;2890;51.950;7.668;2022-09-03T20:43:41;20.30;26.90
5731;DHT22;2890;51.950;7.668;2022-09-03T20:46:37;20.30;28.30
5731;DHT22;2890;51.950;7.668;2022-09-03T20:49:13;20.20;27.40
5731;DHT22;2890;51.950;7.668;2022-09-03T20:51:55;20.20;27.70
5731;DHT22;2890;51.950;7.668;2022-09-03T20:54:34;20.30;27.90
5731;DHT22;2890;51.950;7.668;2022-09-03T20:57:30;20.20;28.30
5731;DHT22;2890;51.950;7.668;2022-09-03T21:10:20;20.20;30.10
5731;DHT22;2890;51.950;7.668;2022-09-03T21:12:54;20.10;29.60
5731;DHT22;2890;51.950;7.668;2022-09-03T21:15:35;19.90;30.90
5731;DHT22;2890;51.950;7.668;2022-09-03T21:18:14;19.80;32.10
5731;DHT22;2890;51.950;7.668;2022-09-03T21:20:48;19.70;32.60
5731;DHT22;2890;51.950;7.668;2022-09-03T21:23:22;19.70;33.10
5731;DHT22;2890;51.950;7.668;2022-09-03T21:25:57;19.70;33.50
5731;DHT22;2890;51.950;7.668;2022-09-03T21:28:33;19.70;34.20
5731;DHT22;2890;51.950;7.668;2022-09-03T21:31:09;19.60;34.30
5731;DHT22;2890;51.950;7.668;2022-09-03T21:33:37;19.50;34.90
5731;DHT22;2890;51.950;7.668;2022-09-03T21:36:08;19.50;35.40
5731;DHT22;2890;51.950;7.668;2022-09-03T21:38:44;19.50;35.90
5731;DHT22;2890;51.950;7.668;2022-09-03T21:41:17;19.50;36.40
5731;DHT22;2890;51.950;7.668;2022-09-03T21:43:51;19.50;36.50
5731;DHT22;2890;51.950;7.668;2022-09-03T21:46:22;19.40;36.90
5731;DHT22;2890;51.950;7.668;2022-09-03T21:48:55;19.40;37.90
5731;DHT22;2890;51.950;7.668;2022-09-03T21:51:25;19.30;38.50
5731;DHT22;2890;51.950;7.668;2022-09-03T21:54:00;19.30;39.20
5731;DHT22;2890;51.950;7.668;2022-09-03T21:56:49;19.20;39.70
5731;DHT22;2890;51.950;7.668;2022-09-03T21:59:26;19.20;40.40
5731;DHT22;2890;51.950;7.668;2022-09-03T22:02:01;19.10;40.80
5731;DHT22;2890;51.950;7.668;2022-09-03T22:04:28;19.10;41.30
5731;DHT22;2890;51.950;7.668;2022-09-03T22:07:07;19.10;41.80
5731;DHT22;2890;51.950;7.668;2022-09-03T22:09:44;19.10;41.90
5731;DHT22;2890;51.950;7.668;2022-09-03T22:12:17;19.00;42.40
5731;DHT22;2890;51.950;7.668;2022-09-03T22:14:47;19.00;42.80
5731;DHT22;2890;51.950;7.668;2022-09-03T22:17:18;19.00;43.20
5731;DHT22;2890;51.950;7.668;2022-09-03T22:19:48;19.00;43.80
5731;DHT22;2890;51.950;7.668;2022-09-03T22:22:18;19.00;43.80
5731;DHT22;2890;51.950;7.668;2022-09-03T22:24:54;19.00;44.00
5731;DHT22;2890;51.950;7.668;2022-09-03T22:27:28;19.00;43.90
5731;DHT22;2890;51.950;7.668;2022-09-03T22:30:03;19.00;44.10
5731;DHT22;2890;51.950;7.668;2022-09-03T22:32:40;18.90;44.50
5731;DHT22;2890;51.950;7.668;2022-09-03T22:38:20;18.80;45.50
5731;DHT22;2890;51.950;7.668;2022-09-03T22:40:57;18.80;45.80
5731;DHT22;2890;51.950;7.668;2022-09-03T22:43:34;18.80;46.20
5731;DHT22;2890;51.950;7.668;2022-09-03T22:46:05;18.70;46.50
5731;DHT22;2890;51.950;7.668;2022-09-03T22:48:52;18.70;47.10
5731;DHT22;2890;51.950;7.668;2022-09-03T22:51:25;18.70;47.30
5731;DHT22;2890;51.950;7.668;2022-09-03T22:54:19;18.70;48.00
5731;DHT22;2890;51.950;7.668;2022-09-03T22:56:51;18.60;48.40
5731;DHT22;2890;51.950;7.668;2022-09-03T22:59:22;18.60;48.70
5731;DHT22;2890;51.950;7.668;2022-09-03T23:01:57;18.60;49.10
5731;DHT22;2890;51.950;7.668;2022-09-03T23:04:29;18.50;49.30
5731;DHT22;2890;51.950;7.668;2022-09-03T23:07:00;18.50;49.70
5731;DHT22;2890;51.950;7.668;2022-09-03T23:09:34;18.40;50.50
5731;DHT22;2890;51.950;7.668;2022-09-03T23:12:07;18.40;50.80
5731;DHT22;2890;51.950;7.668;2022-09-03T23:14:41;18.30;51.40
5731;DHT22;2890;51.950;7.668;2022-09-03T23:19:45;18.30;52.80
5731;DHT22;2890;51.950;7.668;2022-09-03T23:22:19;18.30;52.60
5731;DHT22;2890;51.950;7.668;2022-09-03T23:24:51;18.20;52.80
5731;DHT22;2890;51.950;7.668;2022-09-03T23:27:22;18.20;53.60
5731;DHT22;2890;51.950;7.668;2022-09-03T23:29:53;18.10;54.20
5731;DHT22;2890;51.950;7.668;2022-09-03T23:32:23;18.10;54.60
5731;DHT22;2890;51.950;7.668;2022-09-03T23:34:50;18.10;55.00
5731;DHT22;2890;51.950;7.668;2022-09-03T23:37:32;18.10;54.70
5731;DHT22;2890;51.950;7.668;2022-09-03T23:40:13;18.00;55.10
5731;DHT22;2890;51.950;7.668;2022-09-03T23:42:53;18.00;56.10
5731;DHT22;2890;51.950;7.668;2022-09-03T23:45:32;18.00;56.10
5731;DHT22;2890;51.950;7.668;2022-09-03T23:48:09;18.00;56.50
5731;DHT22;2890;51.950;7.668;2022-09-03T23:50:42;18.00;56.90
5731;DHT22;2890;51.950;7.668;2022-09-03T23:53:33;17.90;56.90
5731;DHT22;2890;51.950;7.668;2022-09-03T23:56:14;17.90;57.30
5731;DHT22;2890;51.950;7.668;2022-09-03T23:58:55;17.90;57.70
